createdAt,value
2018-06-13T00:00:38.448Z,72.23
2018-06-13T00:01:38.557Z,71.99
2018-06-13T00:02:38.367Z,71.56
2018-06-13T00:03:38.360Z,71.87
2018-06-13T00:04:38.598Z,71.99
2018-06-13T00:05:38.377Z,72.2
2018-06-13T00:06:38.371Z,72.25
2018-06-13T00:07:38.389Z,71.93
2018-06-13T00:08:38.386Z,71.95
2018-06-13T00:09:38.361Z,72.39
2018-06-13T00:10:38.431Z,72.2
2018-06-13T00:11:38.365Z,72.19
2018-06-13T00:12:38.488Z,72.55
2018-06-13T00:13:38.375Z,72.49
2018-06-13T00:14:38.359Z,72.51
2018-06-13T00:15:38.362Z,72.16
2018-06-13T00:16:38.380Z,72.3
2018-06-13T00:17:38.353Z,72.49
2018-06-13T00:18:38.386Z,72.08
2018-06-13T00:19:38.385Z,72.25
2018-06-13T00:20:38.436Z,71.92
2018-06-13T00:21:38.383Z,71.7
2018-06-13T00:22:38.789Z,72.09
2018-06-13T00:23:38.501Z,72.23
2018-06-13T00:24:38.951Z,72.19
2018-06-13T00:25:38.462Z,71.84
2018-06-13T00:26:38.376Z,71.94
2018-06-13T00:27:38.368Z,71.93
2018-06-13T00:28:38.561Z,71.97
2018-06-13T00:29:38.367Z,71.92
2018-06-13T00:30:38.375Z,71.8
2018-06-13T00:31:38.364Z,72
2018-06-13T00:32:38.455Z,72
2018-06-13T00:33:38.403Z,71.51
2018-06-13T00:34:38.406Z,71.57
2018-06-13T00:35:38.377Z,71.75
2018-06-13T00:36:38.369Z,71.48
2018-06-13T00:37:38.380Z,72.05
2018-06-13T00:38:38.383Z,72.01
2018-06-13T00:39:38.405Z,71.96
2018-06-13T00:40:38.400Z,71.98
2018-06-13T00:41:38.360Z,72.08
2018-06-13T00:42:38.411Z,71.78
2018-06-13T00:43:38.422Z,72.19
2018-06-13T00:44:38.456Z,71.92
2018-06-13T00:45:38.453Z,71.95
2018-06-13T00:46:38.504Z,72.15
2018-06-13T00:47:38.447Z,71.77
2018-06-13T00:48:38.506Z,71.35
2018-06-13T00:49:38.460Z,71.53
2018-06-13T00:50:38.442Z,71.5
2018-06-13T00:51:38.421Z,71.8
2018-06-13T00:52:38.498Z,71.82
2018-06-13T00:53:38.433Z,71.45
2018-06-13T00:54:38.398Z,72.01
2018-06-13T00:55:38.384Z,72.01
2018-06-13T00:56:38.377Z,72.28
2018-06-13T00:57:38.383Z,72.14
2018-06-13T00:58:38.382Z,72.1
2018-06-13T00:59:38.392Z,72.45
2018-06-13T01:00:38.400Z,72.19
2018-06-13T01:01:38.390Z,72.25
2018-06-13T01:02:38.387Z,72.11
2018-06-13T01:03:38.386Z,72.25
2018-06-13T01:04:38.631Z,72.05
2018-06-13T01:05:38.379Z,72.21
2018-06-13T01:06:38.383Z,72.36
2018-06-13T01:07:38.586Z,72.54
2018-06-13T01:08:38.500Z,72.27
2018-06-13T01:09:38.599Z,72.44
2018-06-13T01:10:40.217Z,72.88
2018-06-13T01:11:38.396Z,72.94
2018-06-13T01:12:38.383Z,73.08
2018-06-13T01:13:38.629Z,72.84
2018-06-13T01:14:38.490Z,72.79
2018-06-13T01:15:38.421Z,73.17
2018-06-13T01:16:38.443Z,73.12
2018-06-13T01:17:38.441Z,73.21
2018-06-13T01:18:38.400Z,73.29
2018-06-13T01:19:38.582Z,73.55
2018-06-13T01:20:38.406Z,73.75
2018-06-13T01:21:38.445Z,73.84
2018-06-13T01:22:38.406Z,73.87
2018-06-13T01:23:38.529Z,73.84
2018-06-13T01:24:38.714Z,74.29
2018-06-13T01:25:38.391Z,74.19
2018-06-13T01:26:38.427Z,74.59
2018-06-13T01:27:38.482Z,74.63
2018-06-13T01:28:38.436Z,74.74
2018-06-13T01:29:38.571Z,74.72
2018-06-13T01:30:38.454Z,74.92
2018-06-13T01:31:38.398Z,74.5
2018-06-13T01:32:38.517Z,75.01
2018-06-13T01:33:38.407Z,75.04
2018-06-13T01:34:38.449Z,74.67
2018-06-13T01:35:38.543Z,74.8
2018-06-13T01:36:38.406Z,74.8
2018-06-13T01:37:38.448Z,75.14
2018-06-13T01:38:38.472Z,75.02
2018-06-13T01:39:38.453Z,74.95
2018-06-13T01:40:38.427Z,75
2018-06-13T01:41:38.422Z,74.91
2018-06-13T01:42:38.403Z,75.06
2018-06-13T01:43:38.465Z,74.87
2018-06-13T01:44:38.596Z,74.81
2018-06-13T01:45:38.472Z,75.07
2018-06-13T01:46:38.461Z,75.13
2018-06-13T01:47:38.504Z,75.11
2018-06-13T01:48:38.593Z,75.13
2018-06-13T01:49:38.439Z,75.32
2018-06-13T01:50:38.414Z,75.25
2018-06-13T01:51:38.472Z,75.27
2018-06-13T01:52:38.525Z,75.41
2018-06-13T01:53:38.552Z,75.59
2018-06-13T01:54:38.482Z,75.64
2018-06-13T01:55:38.434Z,76.06
2018-06-13T01:56:38.504Z,76.01
2018-06-13T01:57:38.428Z,75.92
2018-06-13T01:58:38.464Z,75.98
2018-06-13T01:59:38.479Z,75.95
2018-06-13T02:00:38.459Z,76.04
2018-06-13T02:01:38.411Z,76.26
2018-06-13T02:02:38.410Z,75.94
2018-06-13T02:03:38.418Z,76.15
2018-06-13T02:04:38.422Z,76.15
2018-06-13T02:05:38.426Z,76.28
2018-06-13T02:06:38.425Z,76.24
2018-06-13T02:07:38.423Z,76.1
2018-06-13T02:08:38.430Z,76.34
2018-06-13T02:09:38.449Z,76.32
2018-06-13T02:10:38.442Z,76.48
2018-06-13T02:11:38.460Z,76.35
2018-06-13T02:12:38.417Z,76.63
2018-06-13T02:13:38.413Z,76.54
2018-06-13T02:14:38.443Z,76.61
2018-06-13T02:15:38.460Z,76.49
2018-06-13T02:16:38.422Z,76.51
2018-06-13T02:17:38.499Z,76.35
2018-06-13T02:18:38.546Z,76.39
2018-06-13T02:19:38.506Z,76.68
2018-06-13T02:20:38.590Z,76.63
2018-06-13T02:21:38.638Z,76.38
2018-06-13T02:22:38.487Z,76.52
2018-06-13T02:23:38.444Z,76.68
2018-06-13T02:24:38.439Z,76.58
2018-06-13T02:25:38.457Z,76.53
2018-06-13T02:26:38.460Z,76.6
2018-06-13T02:27:38.445Z,76.89
2018-06-13T02:28:38.469Z,76.54
2018-06-13T02:29:38.458Z,76.77
2018-06-13T02:30:38.507Z,76.28
2018-06-13T02:31:38.691Z,76.55
2018-06-13T02:32:38.432Z,76.62
2018-06-13T02:33:38.439Z,76.58
2018-06-13T02:34:38.451Z,76.43
2018-06-13T02:35:38.454Z,76.61
2018-06-13T02:36:38.531Z,76.58
2018-06-13T02:37:38.589Z,76.7
2018-06-13T02:38:38.448Z,76.64
2018-06-13T02:39:38.443Z,76.82
2018-06-13T02:40:38.487Z,76.99
2018-06-13T02:41:38.516Z,77.2
2018-06-13T02:42:38.456Z,77.3
2018-06-13T02:43:38.490Z,77.18
2018-06-13T02:44:38.472Z,77.48
2018-06-13T02:45:38.482Z,77.53
2018-06-13T02:46:38.501Z,77.54
2018-06-13T02:47:38.471Z,77.69
2018-06-13T02:48:38.485Z,77.43
2018-06-13T02:49:38.443Z,77.56
2018-06-13T02:50:38.532Z,77.52
2018-06-13T02:51:38.460Z,77.62
2018-06-13T02:52:38.456Z,77.65
2018-06-13T02:53:38.512Z,77.65
2018-06-13T02:54:38.495Z,77.74
2018-06-13T02:55:38.502Z,78
2018-06-13T02:56:38.459Z,78.05
2018-06-13T02:57:38.536Z,78.05
2018-06-13T02:58:38.473Z,77.93
2018-06-13T02:59:38.558Z,78.23
2018-06-13T03:00:38.454Z,78.18
2018-06-13T03:01:38.493Z,77.86
2018-06-13T03:02:38.477Z,77.84
2018-06-13T03:03:38.455Z,78.08
2018-06-13T03:04:38.517Z,77.9
2018-06-13T03:05:38.444Z,78.15
2018-06-13T03:06:38.453Z,78.06
2018-06-13T03:07:38.608Z,78.21
2018-06-13T03:08:38.453Z,78.27
2018-06-13T03:09:38.466Z,78.14
2018-06-13T03:10:38.450Z,78.18
2018-06-13T03:11:38.453Z,78.29
2018-06-13T03:12:38.481Z,78.37
2018-06-13T03:13:38.651Z,78.24
2018-06-13T03:14:38.486Z,78.23
2018-06-13T03:15:38.481Z,78.4
2018-06-13T03:16:38.482Z,78.4
2018-06-13T03:17:38.501Z,78.46
2018-06-13T03:18:38.464Z,78.43
2018-06-13T03:19:38.438Z,78.22
2018-06-13T03:20:38.452Z,78.52
2018-06-13T03:21:38.449Z,78.52
2018-06-13T03:22:38.499Z,78.65
2018-06-13T03:23:38.472Z,78.61
2018-06-13T03:24:38.465Z,78.56
2018-06-13T03:25:38.449Z,78.39
2018-06-13T03:26:38.470Z,78.17
2018-06-13T03:27:38.698Z,78.21
2018-06-13T03:28:38.477Z,78.07
2018-06-13T03:29:38.487Z,77.96
2018-06-13T03:30:38.497Z,78.23
2018-06-13T03:31:38.476Z,78.47
2018-06-13T03:32:38.570Z,78.36
2018-06-13T03:33:39.010Z,78.37
2018-06-13T03:34:38.466Z,78.39
2018-06-13T03:35:38.479Z,78.36
2018-06-13T03:36:38.497Z,78.58
2018-06-13T03:37:38.444Z,78.57
2018-06-13T03:38:38.490Z,78.64
2018-06-13T03:39:38.498Z,78.79
2018-06-13T03:40:38.545Z,78.84
2018-06-13T03:41:38.469Z,79.06
2018-06-13T03:42:38.537Z,78.93
2018-06-13T03:43:38.468Z,78.68
2018-06-13T03:44:38.488Z,78.8
2018-06-13T03:45:38.473Z,78.71
2018-06-13T03:46:38.479Z,78.66
2018-06-13T03:47:38.515Z,78.66
2018-06-13T03:48:38.531Z,78.56
2018-06-13T03:49:38.497Z,78.56
2018-06-13T03:50:38.504Z,78.7
2018-06-13T03:51:38.475Z,78.71
2018-06-13T03:52:38.510Z,78.65
2018-06-13T03:53:38.620Z,78.62
2018-06-13T03:54:38.516Z,78.65
2018-06-13T03:55:38.482Z,78.83
2018-06-13T03:56:38.615Z,78.67
2018-06-13T03:57:38.612Z,78.76
2018-06-13T03:58:38.570Z,78.91
2018-06-13T03:59:38.475Z,78.7
2018-06-13T04:00:38.477Z,78.84
2018-06-13T04:01:38.555Z,78.84
2018-06-13T04:02:38.552Z,78.66
2018-06-13T04:03:38.762Z,78.61
2018-06-13T04:04:38.496Z,78.6
2018-06-13T04:05:38.685Z,78.59
2018-06-13T04:06:38.564Z,78.41
2018-06-13T04:07:38.487Z,78.34
2018-06-13T04:08:38.488Z,78.63
2018-06-13T04:09:38.479Z,78.49
2018-06-13T04:10:38.556Z,78.49
2018-06-13T04:11:38.522Z,78.67
2018-06-13T04:12:38.528Z,78.48
2018-06-13T04:13:38.743Z,78.61
2018-06-13T04:14:38.516Z,78.65
2018-06-13T04:15:38.489Z,78.61
2018-06-13T04:16:38.575Z,78.58
2018-06-13T04:17:38.506Z,78.39
2018-06-13T04:18:38.524Z,78.57
2018-06-13T04:19:38.496Z,78.88
2018-06-13T04:20:38.516Z,78.28
2018-06-13T04:21:38.505Z,78.4
2018-06-13T04:22:38.503Z,78.48
2018-06-13T04:23:38.567Z,78.5
2018-06-13T04:24:38.485Z,78.48
2018-06-13T04:25:38.508Z,78.29
2018-06-13T04:26:38.495Z,78.32
2018-06-13T04:27:38.530Z,78.26
2018-06-13T04:28:38.518Z,78.38
2018-06-13T04:29:38.497Z,78.29
2018-06-13T04:30:38.524Z,78.29
2018-06-13T04:31:38.510Z,78.36
2018-06-13T04:32:38.654Z,78.12
2018-06-13T04:33:38.580Z,78.1
2018-06-13T04:34:38.519Z,78.23
2018-06-13T04:35:38.502Z,77.91
2018-06-13T04:36:38.535Z,77.99
2018-06-13T04:37:38.490Z,78.03
2018-06-13T04:38:38.568Z,78.16
2018-06-13T04:39:38.536Z,77.99
2018-06-13T04:40:38.515Z,77.83
2018-06-13T04:41:38.531Z,78.23
2018-06-13T04:42:38.503Z,78.06
2018-06-13T04:43:38.507Z,78.21
2018-06-13T04:44:38.507Z,77.85
2018-06-13T04:45:38.526Z,77.61
2018-06-13T04:46:38.520Z,78.03
2018-06-13T04:47:38.514Z,77.99
2018-06-13T04:48:38.512Z,77.9
2018-06-13T04:49:38.547Z,77.78
2018-06-13T04:50:38.569Z,77.86
2018-06-13T04:51:38.661Z,77.87
2018-06-13T04:52:38.531Z,77.68
2018-06-13T04:53:38.518Z,77.75
2018-06-13T04:54:38.544Z,77.44
2018-06-13T04:55:38.516Z,77.07
2018-06-13T04:56:38.516Z,77.39
2018-06-13T04:57:38.866Z,77.42
2018-06-13T04:58:38.701Z,77.5
2018-06-13T04:59:38.521Z,77.53
2018-06-13T05:00:38.503Z,77.62
2018-06-13T05:01:38.520Z,77.6
2018-06-13T05:02:38.573Z,77.37
2018-06-13T05:03:38.650Z,77.23
2018-06-13T05:04:38.562Z,77.33
2018-06-13T05:05:38.565Z,77.4
2018-06-13T05:06:38.526Z,77.46
2018-06-13T05:07:38.575Z,77.59
2018-06-13T05:08:38.574Z,77.55
2018-06-13T05:09:38.534Z,77.59
2018-06-13T05:10:38.592Z,77.4
2018-06-13T05:11:38.523Z,77.78
2018-06-13T05:12:38.536Z,77.92
2018-06-13T05:13:38.669Z,77.68
2018-06-13T05:14:38.533Z,77.47
2018-06-13T05:15:38.547Z,77.68
2018-06-13T05:16:38.588Z,77.51
2018-06-13T05:17:38.572Z,77.33
2018-06-13T05:18:38.537Z,77.64
2018-06-13T05:19:38.538Z,77.31
2018-06-13T05:20:38.529Z,77.09
2018-06-13T05:21:38.597Z,77.41
2018-06-13T05:22:38.542Z,77.54
2018-06-13T05:23:38.560Z,77.37
2018-06-13T05:24:38.542Z,77.36
2018-06-13T05:25:38.540Z,77.39
2018-06-13T05:26:38.578Z,77.63
2018-06-13T05:27:38.649Z,77.17
2018-06-13T05:28:38.698Z,77.17
2018-06-13T05:29:38.593Z,77.34
2018-06-13T05:30:38.567Z,77.12
2018-06-13T05:31:38.522Z,77.18
2018-06-13T05:32:38.641Z,76.8
2018-06-13T05:33:38.540Z,77.02
2018-06-13T05:34:38.540Z,76.71
2018-06-13T05:35:38.574Z,76.88
2018-06-13T05:36:38.510Z,76.79
2018-06-13T05:37:38.573Z,76.61
2018-06-13T05:38:38.581Z,76.69
2018-06-13T05:39:38.539Z,76.4
2018-06-13T05:40:38.560Z,76.15
2018-06-13T05:41:38.578Z,75.69
2018-06-13T05:42:38.580Z,75.1
2018-06-13T05:43:38.544Z,75.34
2018-06-13T05:44:38.583Z,75.22
2018-06-13T05:45:38.550Z,75.71
2018-06-13T05:46:38.540Z,75.27
2018-06-13T05:47:38.588Z,75.16
2018-06-13T05:48:38.589Z,75.24
2018-06-13T05:49:38.614Z,74.73
2018-06-13T05:50:38.546Z,74.66
2018-06-13T05:51:38.534Z,74.42
2018-06-13T05:52:38.607Z,73.79
2018-06-13T05:53:38.556Z,74.14
2018-06-13T05:54:38.555Z,74.47
2018-06-13T05:55:38.583Z,74.7
2018-06-13T05:56:38.567Z,74.87
2018-06-13T05:57:38.581Z,74.85
2018-06-13T05:58:38.633Z,74.98
2018-06-13T05:59:38.562Z,75.12
2018-06-13T06:00:38.561Z,74.61
2018-06-13T06:01:38.637Z,74.82
2018-06-13T06:02:38.611Z,75.08
2018-06-13T06:03:38.589Z,74.98
2018-06-13T06:04:38.627Z,75.06
2018-06-13T06:05:38.783Z,75.45
2018-06-13T06:06:38.571Z,75.81
2018-06-13T06:07:38.579Z,75.23
2018-06-13T06:08:38.613Z,75.17
2018-06-13T06:09:38.578Z,74.95
2018-06-13T06:10:38.589Z,74.66
2018-06-13T06:11:38.603Z,74.23
2018-06-13T06:12:38.608Z,74.74
2018-06-13T06:13:39.010Z,74.34
2018-06-13T06:14:38.601Z,74.36
2018-06-13T06:15:38.628Z,74.03
2018-06-13T06:16:38.589Z,72.8
2018-06-13T06:17:38.614Z,72.36
2018-06-13T06:18:38.714Z,72
2018-06-13T06:19:38.673Z,71.51
2018-06-13T06:20:38.774Z,71.78
2018-06-13T06:21:38.601Z,71.31
2018-06-13T06:22:38.580Z,70.43
2018-06-13T06:23:38.914Z,70.61
2018-06-13T06:24:38.555Z,70.86
2018-06-13T06:25:38.660Z,69.99
2018-06-13T06:26:38.595Z,68.65
2018-06-13T06:27:38.704Z,69.03
2018-06-13T06:28:39.295Z,69.31
2018-06-13T06:29:38.621Z,69.37
2018-06-13T06:30:38.581Z,67.28
2018-06-13T06:31:38.598Z,67.78
2018-06-13T06:32:38.629Z,68.03
2018-06-13T06:33:38.592Z,67.04
2018-06-13T06:34:38.716Z,67.15
2018-06-13T06:35:38.579Z,67.44
2018-06-13T06:36:38.586Z,67.11
2018-06-13T06:37:38.649Z,65.71
2018-06-13T06:38:38.590Z,65.83
2018-06-13T06:39:38.598Z,65.25
2018-06-13T06:40:38.643Z,64.52
2018-06-13T06:41:38.596Z,64.26
2018-06-13T06:42:38.572Z,64.94
2018-06-13T06:43:38.615Z,65.21
2018-06-13T06:44:39.005Z,65.13
2018-06-13T06:45:38.589Z,64.88
2018-06-13T06:46:38.584Z,62.13
2018-06-13T06:47:38.586Z,61.59
2018-06-13T06:48:38.570Z,61.64
2018-06-13T06:49:38.903Z,60.76
2018-06-13T06:50:38.808Z,59.77
2018-06-13T06:51:38.601Z,60.85
2018-06-13T06:52:38.597Z,60.81
2018-06-13T06:53:38.589Z,61.31
2018-06-13T06:54:38.579Z,61.56
2018-06-13T06:55:39.178Z,61.97
2018-06-13T06:56:38.582Z,63.51
2018-06-13T06:57:38.620Z,68.97
2018-06-13T06:58:38.612Z,71.31
2018-06-13T06:59:38.599Z,72.07
2018-06-13T07:00:38.598Z,72.38
2018-06-13T07:01:38.736Z,72.12
2018-06-13T07:02:38.905Z,73.03
2018-06-13T07:03:38.595Z,73.76
2018-06-13T07:04:38.626Z,73.59
2018-06-13T07:05:38.633Z,74.02
2018-06-13T07:06:38.612Z,73.36
2018-06-13T07:07:38.586Z,73.9
2018-06-13T07:08:38.584Z,74.44
2018-06-13T07:09:38.634Z,74.53
2018-06-13T07:10:38.587Z,74.71
2018-06-13T07:11:38.610Z,74.81
2018-06-13T07:12:38.577Z,74.57
2018-06-13T07:13:38.632Z,74.53
2018-06-13T07:14:38.768Z,74.31
2018-06-13T07:15:38.867Z,74.6
2018-06-13T07:16:38.809Z,74.15
2018-06-13T07:17:38.640Z,74.45
2018-06-13T07:18:38.613Z,74.34
2018-06-13T07:19:38.650Z,74.62
2018-06-13T07:20:38.605Z,75
2018-06-13T07:21:38.611Z,74.26
2018-06-13T07:22:38.612Z,74.32
2018-06-13T07:23:38.681Z,74
2018-06-13T07:24:38.777Z,73.78
2018-06-13T07:25:38.590Z,73.61
2018-06-13T07:26:38.599Z,73.78
2018-06-13T07:27:38.598Z,73.47
2018-06-13T07:28:38.624Z,73.08
2018-06-13T07:29:38.586Z,72.19
2018-06-13T07:30:38.627Z,72.47
2018-06-13T07:31:38.580Z,72.29
2018-06-13T07:32:39.248Z,72.39
2018-06-13T07:33:38.863Z,72.42
2018-06-13T07:34:38.624Z,72.86
2018-06-13T07:35:38.621Z,71.84
2018-06-13T07:36:38.608Z,72.44
2018-06-13T07:37:38.776Z,71.83
2018-06-13T07:38:38.617Z,71.76
2018-06-13T07:39:38.598Z,70.78
2018-06-13T07:40:38.596Z,69.33
2018-06-13T07:41:38.668Z,70.77
2018-06-13T07:42:38.612Z,69.42
2018-06-13T07:43:38.610Z,69.13
2018-06-13T07:44:38.599Z,69.36
2018-06-13T07:45:38.601Z,69.8
2018-06-13T07:46:38.614Z,70.22
2018-06-13T07:47:38.845Z,69.91
2018-06-13T07:48:38.662Z,67.77
2018-06-13T07:49:38.829Z,68.47
2018-06-13T07:50:38.624Z,67.99
2018-06-13T07:51:38.727Z,68.33
2018-06-13T07:52:38.647Z,67.95
2018-06-13T07:53:38.604Z,67.38
2018-06-13T07:54:38.638Z,66.46
2018-06-13T07:55:38.645Z,65.92
2018-06-13T07:56:38.613Z,66.23
2018-06-13T07:57:38.613Z,66.62
2018-06-13T07:58:38.618Z,66.51
2018-06-13T07:59:38.671Z,67.15
2018-06-13T08:00:38.610Z,66.49
2018-06-13T08:01:38.616Z,65.09
2018-06-13T08:02:38.631Z,64.62
2018-06-13T08:03:38.624Z,64.65
2018-06-13T08:04:38.759Z,65.25
2018-06-13T08:05:38.611Z,65.21
2018-06-13T08:06:38.631Z,64.51
2018-06-13T08:07:38.722Z,64.13
2018-06-13T08:08:39.733Z,64.83
2018-06-13T08:09:38.703Z,64.53
2018-06-13T08:10:38.707Z,64.51
2018-06-13T08:11:38.604Z,63.99
2018-06-13T08:12:38.687Z,64.45
2018-06-13T08:13:38.595Z,64.58
2018-06-13T08:14:38.696Z,65.34
2018-06-13T08:15:38.659Z,64.97
2018-06-13T08:16:38.662Z,65.07
2018-06-13T08:17:38.741Z,65.15
2018-06-13T08:18:38.701Z,65.2
2018-06-13T08:19:38.681Z,65.15
2018-06-13T08:20:38.639Z,65.1
2018-06-13T08:21:38.624Z,65.46
2018-06-13T08:22:38.625Z,65.81
2018-06-13T08:23:38.618Z,64.67
2018-06-13T08:24:38.659Z,65.86
2018-06-13T08:25:38.770Z,65.67
2018-06-13T08:26:38.841Z,64.22
2018-06-13T08:27:38.857Z,64.2
2018-06-13T08:28:38.639Z,63.65
2018-06-13T08:29:38.614Z,64.32
2018-06-13T08:30:38.639Z,63.26
2018-06-13T08:31:38.619Z,63.69
2018-06-13T08:32:38.679Z,63.92
2018-06-13T08:33:38.829Z,62.96
2018-06-13T08:34:38.639Z,63.69
2018-06-13T08:35:38.647Z,63.93
2018-06-13T08:36:38.930Z,63.49
2018-06-13T08:37:38.666Z,63.94
2018-06-13T08:38:38.639Z,63.44
2018-06-13T08:39:38.632Z,63.2
2018-06-13T08:40:38.813Z,63.72
2018-06-13T08:41:38.626Z,63.53
2018-06-13T08:42:38.672Z,63.42
2018-06-13T08:43:38.682Z,63.88
2018-06-13T08:44:38.627Z,63.84
2018-06-13T08:45:38.675Z,63.99
2018-06-13T08:46:38.641Z,64.63
2018-06-13T08:47:38.735Z,63.24
2018-06-13T08:48:38.835Z,64.36
2018-06-13T08:49:38.876Z,64.06
2018-06-13T08:50:38.670Z,63.65
2018-06-13T08:51:38.634Z,63.79
2018-06-13T08:52:38.778Z,64.39
2018-06-13T08:53:38.731Z,63.95
2018-06-13T08:54:38.764Z,64.39
2018-06-13T08:55:38.825Z,64.72
2018-06-13T08:56:38.651Z,64.08
2018-06-13T08:57:38.695Z,64.5
2018-06-13T08:58:38.638Z,63.97
2018-06-13T08:59:38.776Z,64.6
2018-06-13T09:00:38.923Z,64.68
2018-06-13T09:01:38.643Z,64.63
2018-06-13T09:02:38.700Z,64.63
2018-06-13T09:03:38.649Z,64.13
2018-06-13T09:04:38.644Z,63.08
2018-06-13T09:05:38.665Z,64.32
2018-06-13T09:06:38.631Z,63.32
2018-06-13T09:07:38.638Z,63.83
2018-06-13T09:08:38.635Z,64.33
2018-06-13T09:09:38.652Z,64.58
2018-06-13T09:10:38.654Z,64.38
2018-06-13T09:11:38.683Z,63.58
2018-06-13T09:12:38.651Z,63.27
2018-06-13T09:13:38.666Z,64.11
2018-06-13T09:14:38.639Z,64.02
2018-06-13T09:15:38.625Z,62.86
2018-06-13T09:16:38.648Z,62.77
2018-06-13T09:17:38.659Z,63.31
2018-06-13T09:18:38.644Z,63.46
2018-06-13T09:19:38.644Z,63.23
2018-06-13T09:20:38.641Z,63.14
2018-06-13T09:21:38.654Z,63.3
2018-06-13T09:22:38.640Z,62.4
2018-06-13T09:23:38.735Z,61.54
2018-06-13T09:24:38.665Z,62.87
2018-06-13T09:25:38.646Z,60.9
2018-06-13T09:26:38.959Z,60.06
2018-06-13T09:27:38.847Z,60.28
2018-06-13T09:28:38.636Z,60.88
2018-06-13T09:29:38.743Z,61.03
2018-06-13T09:30:38.648Z,61.28
2018-06-13T09:31:38.664Z,61.92
2018-06-13T09:32:39.296Z,62.56
2018-06-13T09:33:38.680Z,62.6
2018-06-13T09:34:38.633Z,63.21
2018-06-13T09:35:38.832Z,62.92
2018-06-13T09:36:38.661Z,62.33
2018-06-13T09:37:39.478Z,62.12
2018-06-13T09:38:38.704Z,62.23
2018-06-13T09:39:38.682Z,62.24
2018-06-13T09:40:38.648Z,62.84
2018-06-13T09:41:38.674Z,63.17
2018-06-13T09:42:38.680Z,63.53
2018-06-13T09:43:38.669Z,63.2
2018-06-13T09:44:38.669Z,63.35
2018-06-13T09:45:38.703Z,63.8
2018-06-13T09:46:38.662Z,63.42
2018-06-13T09:47:38.685Z,64.39
2018-06-13T09:48:38.702Z,64.11
2018-06-13T09:49:38.650Z,64.03
2018-06-13T09:50:38.659Z,64.01
2018-06-13T09:51:38.677Z,63.88
2018-06-13T09:52:38.662Z,64.19
2018-06-13T09:53:38.675Z,64.68
2018-06-13T09:54:38.673Z,63.15
2018-06-13T09:55:38.662Z,63.59
2018-06-13T09:56:38.802Z,63.42
2018-06-13T09:57:38.698Z,63.5
2018-06-13T09:58:38.687Z,64.07
2018-06-13T09:59:38.687Z,63.69
2018-06-13T10:00:38.669Z,63.87
2018-06-13T10:01:38.911Z,63.64
2018-06-13T10:02:38.741Z,63.63
2018-06-13T10:03:38.674Z,64.37
2018-06-13T10:04:38.933Z,64.91
2018-06-13T10:05:38.671Z,64.4
2018-06-13T10:06:38.876Z,64.21
2018-06-13T10:07:38.672Z,63.02
2018-06-13T10:08:38.860Z,63.48
2018-06-13T10:09:38.652Z,64.11
2018-06-13T10:10:38.691Z,63.88
2018-06-13T10:11:38.655Z,63.94
2018-06-13T10:12:38.770Z,64.11
2018-06-13T10:13:38.671Z,63.86
2018-06-13T10:14:38.682Z,63.4
2018-06-13T10:15:38.673Z,63.66
2018-06-13T10:16:38.717Z,63.17
2018-06-13T10:17:38.866Z,62.16
2018-06-13T10:18:38.940Z,61.61
2018-06-13T10:19:38.685Z,60.57
2018-06-13T10:20:38.683Z,60.36
2018-06-13T10:21:38.725Z,60.14
2018-06-13T10:22:38.679Z,59.14
2018-06-13T10:23:38.750Z,59.63
2018-06-13T10:24:38.704Z,59.78
2018-06-13T10:25:38.707Z,58.99
2018-06-13T10:26:38.884Z,59.15
2018-06-13T10:27:38.687Z,58.98
2018-06-13T10:28:38.686Z,58.07
2018-06-13T10:29:38.701Z,58.68
2018-06-13T10:30:38.709Z,58.66
2018-06-13T10:31:38.708Z,59.66
2018-06-13T10:32:38.693Z,59.06
2018-06-13T10:33:38.735Z,59.35
2018-06-13T10:34:38.679Z,59.1
2018-06-13T10:35:38.701Z,60.12
2018-06-13T10:36:39.220Z,60.22
2018-06-13T10:37:38.691Z,60.43
2018-06-13T10:38:38.884Z,60.41
2018-06-13T10:39:38.747Z,60.19
2018-06-13T10:40:38.773Z,59.69
2018-06-13T10:41:38.693Z,59.9
2018-06-13T10:42:38.851Z,60.69
2018-06-13T10:43:38.696Z,60.73
2018-06-13T10:44:38.715Z,60.21
2018-06-13T10:45:38.917Z,61.35
2018-06-13T10:46:38.701Z,60.96
2018-06-13T10:47:38.693Z,61.57
2018-06-13T10:48:38.892Z,61.12
2018-06-13T10:49:38.839Z,60.52
2018-06-13T10:50:38.747Z,61.28
2018-06-13T10:51:38.791Z,61.93
2018-06-13T10:52:38.706Z,61.25
2018-06-13T10:53:38.997Z,61.68
2018-06-13T10:54:38.728Z,60.39
2018-06-13T10:55:39.206Z,60.89
2018-06-13T10:56:38.698Z,60.94
2018-06-13T10:57:38.780Z,60.76
2018-06-13T10:58:38.974Z,60.26
2018-06-13T10:59:38.692Z,60.59
2018-06-13T11:00:38.724Z,60.63
2018-06-13T11:01:38.721Z,60.33
2018-06-13T11:02:39.005Z,60.36
2018-06-13T11:03:38.729Z,60.38
2018-06-13T11:04:39.030Z,59.63
2018-06-13T11:05:38.781Z,60.08
2018-06-13T11:06:38.717Z,60.07
2018-06-13T11:07:38.753Z,60.23
2018-06-13T11:08:38.733Z,59.49
2018-06-13T11:09:38.849Z,59.16
2018-06-13T11:10:38.706Z,58.53
2018-06-13T11:11:38.805Z,60.22
2018-06-13T11:12:38.705Z,58.15
2018-06-13T11:13:39.432Z,58.3
2018-06-13T11:14:39.422Z,58.83
2018-06-13T11:15:39.516Z,59.54
2018-06-13T11:16:39.448Z,57.94
2018-06-13T11:17:39.451Z,58.54
2018-06-13T11:18:39.548Z,59.1
2018-06-13T11:19:39.761Z,59.85
2018-06-13T11:20:39.489Z,59.95
2018-06-13T11:21:39.463Z,59.89
2018-06-13T11:22:39.456Z,59.99
2018-06-13T11:23:39.440Z,60.16
2018-06-13T11:24:39.521Z,59.96
2018-06-13T11:25:39.481Z,59.67
2018-06-13T11:26:39.493Z,59.17
2018-06-13T11:27:39.787Z,59.64
2018-06-13T11:28:39.410Z,59.51
2018-06-13T11:29:39.491Z,59.03
2018-06-13T11:30:39.412Z,59.36
2018-06-13T11:31:39.800Z,59.75
2018-06-13T11:32:39.464Z,58.46
2018-06-13T11:33:39.521Z,59
2018-06-13T11:34:39.445Z,58.12
2018-06-13T11:35:39.439Z,56.48
2018-06-13T11:36:39.394Z,56.62
2018-06-13T11:37:39.430Z,55.06
2018-06-13T11:38:39.447Z,56.1
2018-06-13T11:39:39.393Z,55.5
2018-06-13T11:40:39.401Z,55.63
2018-06-13T11:41:39.441Z,55.4
2018-06-13T11:42:39.464Z,55.36
2018-06-13T11:43:39.488Z,56.19
2018-06-13T11:44:39.431Z,54.52
2018-06-13T11:45:39.418Z,55.57
2018-06-13T11:46:39.433Z,53.96
2018-06-13T11:47:39.436Z,54.64
2018-06-13T11:48:39.528Z,56.14
2018-06-13T11:49:39.429Z,55.27
2018-06-13T11:50:39.430Z,55.26
2018-06-13T11:51:39.637Z,55.96
2018-06-13T11:52:39.484Z,56.18
2018-06-13T11:53:39.830Z,56.17
2018-06-13T11:54:39.649Z,55.3
2018-06-13T11:55:39.675Z,56.19
2018-06-13T11:56:39.983Z,56.55
2018-06-13T11:57:39.484Z,57.28
2018-06-13T11:58:39.396Z,56.49
2018-06-13T11:59:39.939Z,57
2018-06-13T12:00:39.729Z,57.3
2018-06-13T12:01:39.643Z,55.3
2018-06-13T12:02:39.466Z,55.98
2018-06-13T12:03:39.492Z,56.49
2018-06-13T12:04:39.487Z,56.35
2018-06-13T12:05:39.488Z,55.8
2018-06-13T12:06:39.689Z,56.87
2018-06-13T12:07:39.501Z,56.5
2018-06-13T12:08:39.652Z,57.1
2018-06-13T12:09:39.453Z,57.63
2018-06-13T12:10:39.497Z,57.3
2018-06-13T12:11:40.027Z,57.55
2018-06-13T12:12:38.895Z,58.01
2018-06-13T12:13:38.771Z,57.21
2018-06-13T12:14:38.735Z,57.05
2018-06-13T12:15:38.778Z,57.07
2018-06-13T12:16:38.766Z,57.34
2018-06-13T12:17:38.761Z,57.78
2018-06-13T12:18:38.752Z,57.16
2018-06-13T12:19:38.763Z,57.69
2018-06-13T12:20:38.839Z,57.25
2018-06-13T12:21:38.781Z,57.93
2018-06-13T12:22:39.570Z,58.04
2018-06-13T12:23:38.798Z,56.96
2018-06-13T12:24:38.737Z,57.64
2018-06-13T12:25:38.751Z,57.5
2018-06-13T12:26:38.751Z,56.29
2018-06-13T12:27:38.773Z,56.41
2018-06-13T12:28:39.640Z,55.57
2018-06-13T12:29:38.761Z,56.32
2018-06-13T12:30:38.844Z,56.38
2018-06-13T12:31:38.769Z,55.19
2018-06-13T12:32:38.753Z,56.27
2018-06-13T12:33:38.835Z,56.67
2018-06-13T12:34:38.776Z,56.34
2018-06-13T12:35:39.733Z,56.23
2018-06-13T12:36:38.748Z,55.91
2018-06-13T12:37:38.755Z,56.44
2018-06-13T12:38:38.764Z,55.95
2018-06-13T12:39:38.757Z,56.31
2018-06-13T12:40:40.287Z,55.41
2018-06-13T12:41:38.742Z,55.56
2018-06-13T12:42:38.766Z,55.54
2018-06-13T12:43:38.758Z,56.16
2018-06-13T12:44:38.774Z,55.55
2018-06-13T12:45:38.780Z,55.35
2018-06-13T12:46:38.776Z,55.43
2018-06-13T12:47:38.739Z,55.25
2018-06-13T12:48:38.773Z,55.44
2018-06-13T12:49:38.809Z,55.24
2018-06-13T12:50:38.774Z,54.31
2018-06-13T12:51:38.779Z,54.4
2018-06-13T12:52:38.809Z,54.8
2018-06-13T12:53:38.740Z,54.95
2018-06-13T12:54:38.745Z,54.73
2018-06-13T12:55:38.793Z,54.7